Time;durP1;ratioP1;P1;durP2;ratioP2;P2;SDS_P1;SDS_P2;PMS_P1;PMS_P2;Temp;Humidity;BMP_temperature;BMP_pressure;BME280_temperature;BME280_humidity;BME280_pressure;Samples;Min_cycle;Max_cycle;Signal;HPM_P1;HPM_P2
2022/12/08 00:01:33;;;;;;;58.33;43.97;;;;;;;5.19;71.21;94710.16;5047372;28;20231;-65
2022/12/08 00:04:00;;;;;;;60.20;43.50;;;;;;;5.29;70.63;94713.66;5041137;28;20221;-65
2022/12/08 00:09:20;;;;;;;58.33;42.27;;;;;;;5.41;70.22;94737.06;5043482;28;20228;-64
2022/12/08 00:11:47;;;;;;;54.77;40.97;;;;;;;5.41;69.48;94737.88;5046010;28;20225;-63
2022/12/08 00:14:12;;;;;;;49.20;41.67;;;;;;;5.43;69.52;94748.19;5046442;28;20198;-63
2022/12/08 00:16:38;;;;;;;50.97;40.93;;;;;;;5.43;69.37;94753.41;5045878;28;20227;-65
2022/12/08 00:19:03;;;;;;;51.03;39.80;;;;;;;5.44;69.47;94747.22;5045119;28;20244;-65
2022/12/08 00:21:29;;;;;;;57.10;44.37;;;;;;;5.29;70.44;94755.38;5053150;28;20217;-65
2022/12/08 00:23:55;;;;;;;56.53;41.33;;;;;;;5.38;70.81;94768.59;5043757;28;20225;-65
2022/12/08 00:26:21;;;;;;;59.37;42.33;;;;;;;5.34;70.61;94767.19;5045264;28;20333;-65
2022/12/08 00:28:46;;;;;;;56.13;42.77;;;;;;;4.91;72.27;94766.28;5045392;28;20296;-65
2022/12/08 00:31:12;;;;;;;52.47;41.47;;;;;;;5.23;71.72;94766.28;5043928;28;20214;-65
2022/12/08 00:33:38;;;;;;;54.07;41.73;;;;;;;5.39;71.15;94759.81;5047511;28;20375;-65
2022/12/08 00:36:08;;;;;;;53.57;40.07;;;;;;;5.44;70.72;94749.84;5037728;28;20226;-65
2022/12/08 00:38:34;;;;;;;52.33;39.00;;;;;;;5.57;70.45;94763.50;5044511;28;20256;-65
2022/12/08 00:41:00;;;;;;;57.13;41.60;;;;;;;5.44;70.38;94773.31;5046858;28;20181;-65
2022/12/08 00:43:25;;;;;;;56.83;42.57;;;;;;;5.11;71.84;94772.50;5026369;28;20238;-66
2022/12/08 00:45:51;;;;;;;51.37;39.67;;;;;;;5.33;71.60;94766.38;5026285;28;20234;-65
2022/12/08 00:48:16;;;;;;;50.07;39.33;;;;;;;5.45;71.19;94777.56;5030798;28;20293;-65
2022/12/08 00:50:42;;;;;;;50.37;39.57;;;;;;;5.52;70.29;94773.50;5033806;28;20229;-66
2022/12/08 00:53:07;;;;;;;54.40;39.83;;;;;;;5.62;70.55;94771.78;5043919;28;20197;-65
2022/12/08 00:55:32;;;;;;;49.13;37.07;;;;;;;5.51;70.32;94774.47;5043298;28;20233;-65
2022/12/08 00:57:58;;;;;;;50.77;39.87;;;;;;;5.56;70.40;94777.50;5043219;28;20221;-66
2022/12/08 01:00:23;;;;;;;52.30;40.67;;;;;;;4.78;72.87;94771.63;5047752;28;20233;-66
2022/12/08 01:02:49;;;;;;;48.00;37.53;;;;;;;5.24;72.11;94778.38;5040228;28;20278;-66
2022/12/08 01:05:14;;;;;;;50.60;38.50;;;;;;;5.41;71.27;94774.38;5043601;28;20185;-66
2022/12/08 01:07:39;;;;;;;50.67;38.77;;;;;;;5.31;71.85;94765.66;5047447;28;20209;-66
2022/12/08 01:10:06;;;;;;;52.63;37.20;;;;;;;5.37;71.59;94761.72;5044619;28;20282;-66
2022/12/08 01:12:31;;;;;;;53.00;39.63;;;;;;;5.51;70.95;94759.63;5045217;28;20264;-65
2022/12/08 01:14:56;;;;;;;49.67;38.93;;;;;;;5.34;71.20;94767.19;5046963;28;20237;-65
2022/12/08 01:17:22;;;;;;;50.57;37.90;;;;;;;5.31;71.65;94771.69;5036971;28;20174;-65
2022/12/08 01:19:48;;;;;;;45.57;38.03;;;;;;;5.49;70.83;94771.13;5044163;28;20225;-65
2022/12/08 01:22:13;;;;;;;45.77;34.20;;;;;;;5.56;70.48;94769.69;5038468;28;20232;-66
2022/12/08 01:24:39;;;;;;;46.80;34.00;;;;;;;5.62;70.11;94771.78;5043126;28;20229;-65
2022/12/08 01:27:04;;;;;;;43.43;34.50;;;;;;;5.61;69.82;94764.88;5041820;28;20240;-66
2022/12/08 01:29:30;;;;;;;42.67;34.83;;;;;;;5.63;69.55;94763.00;5041275;28;20213;-66
2022/12/08 01:31:55;;;;;;;47.27;35.40;;;;;;;5.52;70.19;94756.06;5045109;28;20277;-65
2022/12/08 01:34:21;;;;;;;45.47;31.80;;;;;;;5.52;69.93;94748.22;5044675;28;20225;-65
2022/12/08 01:36:46;;;;;;;40.50;33.10;;;;;;;5.51;70.32;94761.41;5042086;28;20226;-65
2022/12/08 01:39:17;;;;;;;42.37;32.90;;;;;;;5.52;70.46;94757.84;5043048;28;20225;-65
2022/12/08 01:41:44;;;;;;;39.03;29.57;;;;;;;5.62;70.11;94755.31;5043423;28;20245;-65
2022/12/08 01:44:09;;;;;;;37.13;29.37;;;;;;;5.54;70.12;94758.56;5042126;28;20190;-65
2022/12/08 01:46:38;;;;;;;38.63;29.57;;;;;;;5.55;70.18;94736.72;5040332;28;20241;-65
2022/12/08 01:49:23;;;;;;;33.87;28.47;;;;;;;5.59;69.89;94740.75;5040315;28;20217;-65
2022/12/08 01:52:10;;;;;;;36.07;28.40;;;;;;;5.49;69.93;94729.41;5044483;28;20315;-65
2022/12/08 01:55:01;;;;;;;36.37;27.77;;;;;;;5.58;69.67;94733.84;5046808;28;20248;-65
2022/12/08 01:57:32;;;;;;;37.07;29.07;;;;;;;5.47;69.79;94733.94;4991131;28;20234;-65
2022/12/08 02:00:04;;;;;;;44.17;30.17;;;;;;;5.45;69.93;94728.00;4990001;28;20268;-65
2022/12/08 02:02:35;;;;;;;40.93;32.33;;;;;;;5.49;69.71;94716.38;5004125;28;20323;-65
2022/12/08 02:05:02;;;;;;;44.03;32.00;;;;;;;5.51;69.74;94719.69;4971332;28;20188;-65
2022/12/08 02:07:28;;;;;;;38.93;30.43;;;;;;;5.44;69.93;94721.16;4985123;28;20258;-65
2022/12/08 02:09:54;;;;;;;40.03;30.07;;;;;;;5.41;70.10;94737.06;4968711;28;20325;-65
2022/12/08 02:12:19;;;;;;;37.93;29.67;;;;;;;5.31;70.44;94731.75;5006421;28;20231;-66
2022/12/08 02:14:45;;;;;;;40.90;30.57;;;;;;;5.15;70.74;94729.59;4985761;28;20276;-65
2022/12/08 02:17:36;;;;;;;43.67;31.30;;;;;;;5.29;70.44;94733.66;4985672;28;20270;-66
2022/12/08 02:20:23;;;;;;;40.07;30.10;;;;;;;5.27;70.46;94735.59;4917543;29;20225;-65
2022/12/08 02:23:00;;;;;;;36.97;30.23;;;;;;;5.15;70.41;94726.16;4917589;29;20236;-65
2022/12/08 02:25:35;;;;;;;39.07;31.17;;;;;;;5.25;70.18;94733.09;4934518;29;20323;-65
2022/12/08 02:28:11;;;;;;;36.63;29.00;;;;;;;5.22;70.40;94724.72;4914741;29;20236;-65
2022/12/08 02:30:52;;;;;;;37.23;29.40;;;;;;;5.35;69.85;94729.75;4918218;29;20221;-65
2022/12/08 02:33:40;;;;;;;38.80;30.33;;;;;;;5.22;69.78;94735.13;4918467;28;20265;-65
2022/12/08 02:36:15;;;;;;;40.27;30.40;;;;;;;5.12;70.61;94724.63;4953280;28;20234;-65
2022/12/08 02:38:47;;;;;;;38.27;30.03;;;;;;;5.25;70.54;94732.28;4969967;28;20233;-64
2022/12/08 02:41:30;;;;;;;39.43;30.00;;;;;;;5.21;69.80;94723.88;4969946;28;20209;-65
2022/12/08 02:44:23;;;;;;;37.67;29.27;;;;;;;5.19;69.90;94722.38;4973062;28;20207;-65
2022/12/08 02:46:56;;;;;;;35.37;29.50;;;;;;;5.19;70.20;94709.31;4963051;28;20243;-65
2022/12/08 02:49:27;;;;;;;39.37;30.07;;;;;;;5.06;70.63;94706.91;4971523;28;20227;-65
2022/12/08 02:52:07;;;;;;;36.30;28.20;;;;;;;5.14;70.41;94701.06;4968951;28;20652;-65
2022/12/08 02:54:35;;;;;;;37.10;27.87;;;;;;;5.18;70.63;94720.69;4950937;28;20327;-65
2022/12/08 02:57:06;;;;;;;38.33;29.80;;;;;;;5.12;70.92;94722.03;4978723;28;20261;-65
2022/12/08 02:59:40;;;;;;;36.77;29.43;;;;;;;5.07;70.31;94716.34;5024840;28;20224;-65
2022/12/08 03:02:15;;;;;;;36.40;28.00;;;;;;;5.09;70.26;94717.06;5038693;28;20197;-65
2022/12/08 03:04:49;;;;;;;40.57;29.90;;;;;;;5.12;70.28;94731.63;5039275;28;20235;-66
2022/12/08 03:07:30;;;;;;;39.33;28.80;;;;;;;5.06;70.10;94731.16;5042198;28;20232;-65
2022/12/08 03:10:07;;;;;;;37.97;29.03;;;;;;;5.07;69.48;94721.56;5035214;28;20244;-65
2022/12/08 03:12:48;;;;;;;36.63;29.60;;;;;;;4.94;70.09;94716.53;5037270;28;20214;-65
2022/12/08 03:15:17;;;;;;;36.60;28.30;;;;;;;4.93;69.49;94724.47;5026931;28;20241;-66
2022/12/08 03:17:47;;;;;;;36.07;27.93;;;;;;;4.98;69.35;94724.94;5024509;28;20223;-66
2022/12/08 03:20:18;;;;;;;35.67;29.00;;;;;;;4.98;69.49;94724.94;5024267;28;20268;-65
2022/12/08 03:22:45;;;;;;;37.27;29.27;;;;;;;4.86;69.86;94719.78;5021904;28;20226;-64
2022/12/08 03:25:14;;;;;;;36.83;28.20;;;;;;;4.95;69.72;94710.38;5025162;28;20237;-64
2022/12/08 03:27:40;;;;;;;41.30;29.83;;;;;;;5.03;69.77;94715.78;5038935;28;20239;-64
2022/12/08 03:30:07;;;;;;;35.43;28.13;;;;;;;4.97;69.83;94712.84;5044348;28;20370;-64
2022/12/08 03:32:54;;;;;;;34.60;28.20;;;;;;;5.00;69.52;94707.41;5033521;28;20280;-65
2022/12/08 03:35:28;;;;;;;35.50;27.80;;;;;;;4.99;69.73;94718.75;5030512;28;20198;-65
2022/12/08 03:38:15;;;;;;;38.03;29.33;;;;;;;4.94;69.98;94715.69;5027727;28;20282;-65
2022/12/08 03:40:41;;;;;;;34.13;27.37;;;;;;;4.98;69.87;94720.56;5023904;28;20224;-65
2022/12/08 03:43:06;;;;;;;35.67;28.50;;;;;;;5.08;69.67;94725.84;5027535;28;20305;-65
2022/12/08 03:45:32;;;;;;;36.83;27.83;;;;;;;4.92;70.17;94721.06;5024145;28;20223;-65
2022/12/08 03:47:57;;;;;;;34.63;26.60;;;;;;;4.98;70.79;94722.34;5027253;28;20245;-65
2022/12/08 03:50:23;;;;;;;32.93;27.50;;;;;;;5.00;70.33;94726.47;5023329;28;20198;-65
2022/12/08 03:52:48;;;;;;;33.93;26.47;;;;;;;4.94;70.33;94723.53;5039367;28;20170;-66
2022/12/08 03:55:14;;;;;;;31.90;26.37;;;;;;;4.96;69.73;94726.84;5030084;28;20229;-66
2022/12/08 03:57:40;;;;;;;34.17;26.33;;;;;;;4.96;69.82;94724.22;5025484;28;20244;-64
2022/12/08 04:00:11;;;;;;;32.83;27.30;;;;;;;4.98;69.61;94715.34;5032198;28;20214;-65
2022/12/08 04:02:37;;;;;;;31.33;26.00;;;;;;;5.00;69.67;94726.47;5042627;28;20197;-66
2022/12/08 04:05:02;;;;;;;33.00;25.63;;;;;;;4.92;70.00;94722.81;5041839;28;20178;-65
2022/12/08 04:07:28;;;;;;;30.83;26.23;;;;;;;5.00;69.81;94733.47;5036082;28;20256;-65
2022/12/08 04:09:54;;;;;;;39.03;27.83;;;;;;;4.72;70.27;94730.47;5046432;28;20242;-65
2022/12/08 04:12:19;;;;;;;36.33;27.27;;;;;;;4.92;69.89;94736.69;5043188;28;20225;-66
2022/12/08 04:14:44;;;;;;;36.43;28.60;;;;;;;4.58;70.30;94743.78;5043163;28;20299;-66
2022/12/08 04:17:10;;;;;;;36.23;29.53;;;;;;;4.26;70.87;94728.91;5047653;28;20232;-66
2022/12/08 04:19:35;;;;;;;38.83;29.27;;;;;;;4.00;72.13;94730.13;5042443;28;20226;-64
2022/12/08 04:22:01;;;;;;;35.27;29.47;;;;;;;4.11;72.43;94736.13;5042566;28;20241;-65
2022/12/08 04:24:26;;;;;;;37.00;29.90;;;;;;;4.45;71.85;94741.31;5043919;28;20232;-65
2022/12/08 04:26:51;;;;;;;36.23;28.43;;;;;;;4.55;71.50;94725.78;5038341;28;20229;-66
2022/12/08 04:29:17;;;;;;;36.33;28.50;;;;;;;4.71;71.05;94731.44;5057505;28;20216;-67
2022/12/08 04:31:43;;;;;;;36.60;29.07;;;;;;;4.82;70.34;94731.38;5048190;28;20364;-67
2022/12/08 04:34:08;;;;;;;40.10;30.20;;;;;;;4.83;70.36;94738.25;5048412;28;20260;-67
2022/12/08 04:36:34;;;;;;;40.27;29.30;;;;;;;4.26;72.43;94734.13;5030483;28;20301;-67
2022/12/08 04:38:59;;;;;;;35.37;28.87;;;;;;;4.57;72.58;94729.09;5027295;28;20342;-68
2022/12/08 04:41:25;;;;;;;41.23;30.03;;;;;;;4.82;71.85;94741.81;5030309;28;20194;-67
2022/12/08 04:43:50;;;;;;;39.17;28.17;;;;;;;4.75;71.83;94745.84;5038317;28;20321;-67
2022/12/08 04:46:16;;;;;;;37.27;28.93;;;;;;;4.87;71.80;94736.22;5023629;28;20231;-67
2022/12/08 04:48:42;;;;;;;39.83;27.87;;;;;;;4.96;71.16;94739.88;5023255;28;20227;-67
2022/12/08 04:51:15;;;;;;;35.10;28.80;;;;;;;4.98;70.89;94740.56;5029229;28;20303;-67
2022/12/08 04:53:41;;;;;;;38.20;28.03;;;;;;;4.97;70.77;94744.13;5029818;28;20225;-66
2022/12/08 04:56:12;;;;;;;31.70;26.37;;;;;;;5.08;70.89;94742.31;5043468;28;20281;-66
2022/12/08 04:58:37;;;;;;;33.80;26.20;;;;;;;5.09;70.49;94743.13;5034481;28;20368;-65
2022/12/08 05:01:02;;;;;;;32.73;26.37;;;;;;;5.05;70.66;94752.97;5036805;28;20233;-65
2022/12/08 05:03:28;;;;;;;34.83;27.23;;;;;;;5.18;70.25;94744.97;5042037;28;20233;-66
2022/12/08 05:05:53;;;;;;;35.50;27.53;;;;;;;5.23;69.75;94749.81;5044729;28;20233;-66
2022/12/08 05:08:19;;;;;;;31.67;25.37;;;;;;;5.29;69.74;94752.75;5043127;28;20193;-65
2022/12/08 05:10:44;;;;;;;32.57;25.33;;;;;;;5.36;69.85;94758.28;5045524;28;20229;-65
2022/12/08 05:13:09;;;;;;;32.23;24.50;;;;;;;5.37;69.76;94752.09;5036344;28;20226;-64
2022/12/08 05:15:35;;;;;;;29.67;23.80;;;;;;;5.38;69.96;94758.16;5042712;28;20237;-67
2022/12/08 05:18:00;;;;;;;29.17;23.73;;;;;;;5.36;70.08;94757.47;5039936;28;20229;-65
2022/12/08 05:20:26;;;;;;;27.33;23.03;;;;;;;5.38;70.36;94763.38;5045172;28;20198;-65
2022/12/08 05:22:52;;;;;;;25.93;22.47;;;;;;;5.28;70.76;94752.88;5041290;28;20189;-65
2022/12/08 05:25:18;;;;;;;29.67;23.80;;;;;;;5.36;70.75;94770.50;5041796;28;20288;-66
2022/12/08 05:27:43;;;;;;;30.13;25.20;;;;;;;5.13;71.33;94765.38;5040451;28;20230;-66
2022/12/08 05:30:09;;;;;;;30.43;25.00;;;;;;;5.21;71.38;94762.13;5041399;28;20217;-64
2022/12/08 05:32:35;;;;;;;34.10;27.27;;;;;;;5.29;70.23;94768.41;5039619;28;20193;-65
2022/12/08 05:35:00;;;;;;;36.10;27.53;;;;;;;4.75;72.22;94774.50;5040784;28;20285;-64
2022/12/08 05:37:26;;;;;;;33.90;27.77;;;;;;;4.77;72.80;94785.63;5037514;28;20221;-64
2022/12/08 05:39:51;;;;;;;34.77;26.73;;;;;;;4.86;72.05;94771.88;5023781;28;20257;-63
2022/12/08 05:42:17;;;;;;;33.87;27.13;;;;;;;4.95;72.07;94777.31;5026620;28;20233;-65
2022/12/08 05:44:42;;;;;;;32.87;25.87;;;;;;;5.11;71.59;94780.31;5018060;28;20226;-65
2022/12/08 05:47:11;;;;;;;36.30;28.13;;;;;;;5.09;71.47;94785.66;5040247;28;20210;-65
2022/12/08 05:49:36;;;;;;;30.57;25.73;;;;;;;5.10;71.52;94786.47;5037224;28;20235;-66
2022/12/08 05:52:02;;;;;;;30.73;25.47;;;;;;;5.13;71.25;94781.00;5028943;28;20233;-66
2022/12/08 05:54:27;;;;;;;29.83;24.40;;;;;;;5.18;71.15;94780.63;5033257;28;20221;-66
2022/12/08 05:56:53;;;;;;;30.73;23.53;;;;;;;5.19;71.29;94790.97;5033871;28;20230;-66
2022/12/08 05:59:18;;;;;;;33.60;25.40;;;;;;;5.12;70.98;94778.53;5025218;28;20280;-66
2022/12/08 06:01:44;;;;;;;41.77;29.07;;;;;;;5.18;70.89;94785.84;5027953;28;20241;-66
2022/12/08 06:04:09;;;;;;;38.53;28.77;;;;;;;5.13;70.91;94782.78;5025842;28;20254;-66
2022/12/08 06:06:35;;;;;;;39.20;28.47;;;;;;;5.14;70.59;94787.06;5029858;28;20234;-66
2022/12/08 06:09:02;;;;;;;42.40;30.90;;;;;;;5.19;70.48;94784.91;5043190;28;20241;-66
2022/12/08 06:11:30;;;;;;;45.57;32.73;;;;;;;5.11;70.43;94777.72;5045120;28;20224;-66
2022/12/08 06:13:57;;;;;;;37.10;28.83;;;;;;;5.00;70.88;94785.59;5043490;28;20190;-66
2022/12/08 06:16:24;;;;;;;32.63;26.40;;;;;;;4.98;70.96;94787.47;5041674;28;20213;-66
2022/12/08 06:18:50;;;;;;;35.57;27.13;;;;;;;4.94;70.90;94801.69;5042818;28;20245;-66
2022/12/08 06:21:17;;;;;;;32.30;25.43;;;;;;;4.84;71.52;94791.19;5039078;28;20316;-66
2022/12/08 06:23:43;;;;;;;32.87;24.63;;;;;;;4.69;72.78;94803.66;5040429;28;20222;-66
2022/12/08 06:26:13;;;;;;;34.13;24.30;;;;;;;4.47;73.30;94803.69;5039235;28;20209;-67
2022/12/08 06:28:41;;;;;;;33.00;25.67;;;;;;;4.33;73.83;94813.41;5039993;28;20260;-66
2022/12/08 06:31:14;;;;;;;30.70;24.73;;;;;;;4.58;73.35;94811.47;5049626;28;20324;-65
2022/12/08 06:33:39;;;;;;;34.63;25.37;;;;;;;4.78;72.44;94810.72;5040025;28;20238;-65
2022/12/08 06:36:05;;;;;;;30.77;24.67;;;;;;;4.92;72.25;94814.00;5041121;28;20221;-64
2022/12/08 06:38:31;;;;;;;31.77;24.57;;;;;;;4.94;71.71;94812.09;5039695;28;20186;-65
2022/12/08 06:40:58;;;;;;;32.43;24.37;;;;;;;5.04;71.51;94806.03;5041955;28;20196;-64
2022/12/08 06:43:24;;;;;;;33.50;24.53;;;;;;;5.23;70.83;94812.38;5042068;28;20296;-65
2022/12/08 06:45:50;;;;;;;32.77;23.80;;;;;;;5.35;70.05;94802.75;5042471;28;20233;-66
2022/12/08 06:48:16;;;;;;;35.93;26.23;;;;;;;5.47;70.29;94794.72;5042314;28;20244;-65
2022/12/08 06:50:42;;;;;;;32.10;24.87;;;;;;;5.47;70.13;94791.28;5056059;28;20235;-66
2022/12/08 06:53:07;;;;;;;34.60;24.90;;;;;;;5.55;70.06;94785.44;5045355;28;20277;-66
2022/12/08 06:55:33;;;;;;;31.00;25.07;;;;;;;5.62;70.24;94794.44;5039744;28;20307;-65
2022/12/08 06:57:58;;;;;;;29.97;23.67;;;;;;;5.70;70.08;94797.22;5030245;28;20229;-66
2022/12/08 07:00:24;;;;;;;32.60;25.17;;;;;;;5.73;69.84;94783.94;5040951;28;20306;-66
2022/12/08 07:02:49;;;;;;;34.37;26.43;;;;;;;5.72;69.70;94795.28;5025946;28;20218;-66
2022/12/08 07:05:15;;;;;;;36.47;26.77;;;;;;;5.65;69.69;94796.78;5023644;28;20186;-65
2022/12/08 07:07:40;;;;;;;38.77;28.27;;;;;;;5.65;69.27;94802.81;5020891;28;20226;-66
2022/12/08 07:10:07;;;;;;;37.97;29.37;;;;;;;5.45;70.33;94803.63;5024887;28;20351;-65
2022/12/08 07:12:32;;;;;;;38.07;28.17;;;;;;;5.38;70.47;94802.50;5006729;28;20233;-66
2022/12/08 07:14:57;;;;;;;38.83;29.67;;;;;;;5.37;71.16;94819.06;5036626;28;20298;-65
2022/12/08 07:17:23;;;;;;;36.77;30.53;;;;;;;5.26;71.30;94812.13;5017999;28;20198;-65
2022/12/08 07:19:49;;;;;;;38.93;30.13;;;;;;;5.20;72.22;94826.47;5030198;28;20190;-65
2022/12/08 07:22:14;;;;;;;35.70;29.43;;;;;;;5.23;71.93;94818.41;5042738;28;20309;-64
2022/12/08 07:24:40;;;;;;;39.30;29.27;;;;;;;5.45;71.34;94832.31;5033889;28;20238;-64
2022/12/08 07:27:05;;;;;;;33.73;26.93;;;;;;;5.61;70.76;94837.09;5038644;28;20234;-65
2022/12/08 07:29:30;;;;;;;38.93;28.77;;;;;;;5.48;71.25;94837.28;5028120;28;20201;-65
2022/12/08 07:31:56;;;;;;;42.70;27.77;;;;;;;5.61;70.66;94840.53;5041667;28;20186;-66
2022/12/08 07:34:21;;;;;;;36.07;25.53;;;;;;;5.68;70.54;94851.31;5029771;28;20244;-66
2022/12/08 07:36:47;;;;;;;35.43;26.37;;;;;;;5.71;70.41;94846.66;5037161;28;20309;-66
2022/12/08 07:39:12;;;;;;;31.67;25.87;;;;;;;5.82;70.20;94843.16;5037685;28;20221;-68
2022/12/08 07:41:38;;;;;;;32.97;26.50;;;;;;;5.77;70.04;94841.88;5044646;28;20185;-65
2022/12/08 07:44:03;;;;;;;35.10;26.60;;;;;;;5.78;70.06;94846.16;5044884;28;20190;-63
2022/12/08 07:46:29;;;;;;;32.43;25.67;;;;;;;5.77;70.63;94852.31;5041763;28;20225;-64
2022/12/08 07:48:55;;;;;;;34.73;26.43;;;;;;;5.59;71.01;94847.69;5023937;28;20237;-66
2022/12/08 07:51:21;;;;;;;38.70;27.50;;;;;;;5.74;70.49;94843.78;5032758;28;20233;-64
2022/12/08 07:53:48;;;;;;;33.87;26.03;;;;;;;5.82;70.31;94850.16;5037553;28;20222;-64
2022/12/08 07:56:14;;;;;;;37.80;27.47;;;;;;;5.81;70.42;94838.09;5028015;28;20269;-66
2022/12/08 07:58:40;;;;;;;37.27;28.10;;;;;;;6.10;69.78;94836.50;5025949;28;20266;-66
2022/12/08 08:01:06;;;;;;;40.30;26.47;;;;;;;5.92;69.99;94832.78;5031135;28;20245;-63
2022/12/08 08:03:32;;;;;;;35.20;25.80;;;;;;;6.20;69.71;94831.31;5041966;28;20264;-65
2022/12/08 08:06:04;;;;;;;40.13;28.20;;;;;;;6.42;68.96;94832.97;5040653;28;20249;-64
2022/12/08 08:08:30;;;;;;;40.33;28.60;;;;;;;6.45;68.99;94842.31;5042388;28;20230;-64
2022/12/08 08:10:56;;;;;;;29.83;24.07;;;;;;;6.44;68.89;94835.44;5045584;28;20242;-62
2022/12/08 08:13:22;;;;;;;28.13;21.73;;;;;;;6.57;68.34;94834.25;5041363;28;20276;-66
2022/12/08 08:15:47;;;;;;;31.47;22.27;;;;;;;6.80;67.80;94832.25;5042075;28;20350;-65
2022/12/08 08:18:13;;;;;;;32.33;23.37;;;;;;;7.00;67.21;94833.16;5042132;28;20313;-67
2022/12/08 08:20:39;;;;;;;32.57;22.47;;;;;;;7.15;66.68;94835.38;5043499;28;20313;-65
2022/12/08 08:23:04;;;;;;;31.63;24.37;;;;;;;7.17;66.57;94836.06;5042014;28;20194;-63
2022/12/08 08:25:30;;;;;;;28.90;22.20;;;;;;;7.23;66.30;94844.19;5045075;28;20197;-65
2022/12/08 08:27:55;;;;;;;31.80;23.17;;;;;;;7.26;65.89;94856.16;5037444;28;20257;-67
2022/12/08 08:30:21;;;;;;;34.07;25.17;;;;;;;7.24;66.55;94851.09;5041399;28;20232;-66
2022/12/08 08:32:47;;;;;;;34.30;24.50;;;;;;;7.34;66.56;94840.63;5040445;28;20229;-65
2022/12/08 08:35:13;;;;;;;32.93;23.80;;;;;;;7.63;66.30;94822.31;5044743;28;20190;-65
2022/12/08 08:37:38;;;;;;;33.13;23.10;;;;;;;7.58;66.58;94840.22;5046832;28;20195;-65
2022/12/08 08:40:04;;;;;;;29.17;21.63;;;;;;;7.73;64.82;94832.78;5038862;28;20224;-67
2022/12/08 08:42:30;;;;;;;31.27;22.73;;;;;;;7.29;66.48;94838.41;5042853;28;20221;-68
2022/12/08 08:44:55;;;;;;;28.40;23.17;;;;;;;7.15;67.34;94838.81;5031481;28;20236;-70
2022/12/08 08:47:21;;;;;;;31.33;23.93;;;;;;;7.25;67.26;94847.50;5026072;28;20234;-67
2022/12/08 08:49:47;;;;;;;30.10;22.07;;;;;;;7.43;66.79;94844.19;5048822;28;20193;-68
2022/12/08 08:52:12;;;;;;;33.30;22.23;;;;;;;7.67;65.65;94833.31;5042075;28;20264;-70
2022/12/08 08:54:38;;;;;;;29.80;21.47;;;;;;;7.76;65.32;94837.75;5040480;28;20230;-70
2022/12/08 08:57:03;;;;;;;30.17;19.93;;;;;;;7.98;64.62;94834.00;5052604;28;20222;-69
2022/12/08 08:59:29;;;;;;;22.53;18.97;;;;;;;8.09;64.08;94825.16;5040182;28;20270;-67
2022/12/08 09:01:54;;;;;;;22.90;19.30;;;;;;;8.01;64.27;94817.19;5037335;28;20248;-67
2022/12/08 09:04:21;;;;;;;24.03;19.03;;;;;;;8.02;64.70;94813.56;5038362;28;20208;-70
2022/12/08 09:06:48;;;;;;;25.80;19.67;;;;;;;8.36;63.79;94819.97;5040288;28;20228;-68
2022/12/08 09:09:14;;;;;;;24.70;17.50;;;;;;;8.48;63.13;94818.03;5048407;28;20246;-70
2022/12/08 09:11:39;;;;;;;24.77;16.97;;;;;;;8.64;62.03;94816.59;5037595;28;20293;-69
2022/12/08 09:14:05;;;;;;;22.93;17.20;;;;;;;8.81;62.16;94818.44;5038980;28;20182;-69
2022/12/08 09:16:31;;;;;;;21.13;16.03;;;;;;;8.62;61.25;94801.00;5043248;28;20189;-70
2022/12/08 09:18:56;;;;;;;22.50;16.43;;;;;;;8.77;61.72;94806.63;5039162;28;20282;-68
2022/12/08 09:21:24;;;;;;;22.07;15.77;;;;;;;8.91;61.73;94794.81;5039315;28;20230;-68
2022/12/08 09:23:53;;;;;;;21.07;15.70;;;;;;;8.99;61.37;94792.28;5033098;28;20252;-68
2022/12/08 09:26:21;;;;;;;19.23;14.93;;;;;;;9.09;61.31;94793.03;5015505;28;20238;-67
2022/12/08 09:28:50;;;;;;;15.80;13.77;;;;;;;9.23;60.82;94796.94;5037850;28;20642;-67
2022/12/08 09:31:17;;;;;;;16.93;14.00;;;;;;;9.25;60.51;94798.44;5024724;28;20225;-68
2022/12/08 09:33:42;;;;;;;19.83;14.97;;;;;;;9.28;60.11;94792.91;5036762;28;20297;-66
2022/12/08 09:36:09;;;;;;;15.80;12.50;;;;;;;9.22;59.83;94792.66;5042294;28;20316;-67
2022/12/08 09:38:34;;;;;;;17.43;14.67;;;;;;;9.10;60.45;94791.22;5041459;28;20221;-67
2022/12/08 09:41:03;;;;;;;21.53;16.07;;;;;;;8.92;61.13;94785.94;5040474;28;20198;-66
2022/12/08 09:43:47;;;;;;;17.27;14.60;;;;;;;8.80;61.88;94783.53;5041206;28;20227;-65
2022/12/08 09:46:16;;;;;;;18.17;14.23;;;;;;;8.88;61.72;94782.81;5040351;28;20230;-68
2022/12/08 09:48:54;;;;;;;19.23;14.07;;;;;;;9.03;60.86;94786.59;5054822;28;20306;-67
2022/12/08 09:51:26;;;;;;;16.80;13.20;;;;;;;8.93;61.49;94791.06;5036496;28;21030;-68
2022/12/08 09:53:58;;;;;;;20.33;14.10;;;;;;;9.12;61.24;94792.75;5038604;28;20249;-68
2022/12/08 09:56:28;;;;;;;17.07;13.73;;;;;;;9.47;60.34;94780.59;5040503;28;20226;-67
2022/12/08 09:59:31;;;;;;;18.57;13.87;;;;;;;9.17;61.04;94774.75;5044956;28;20190;-66
2022/12/08 10:01:56;;;;;;;17.03;12.57;;;;;;;9.34;60.31;94761.78;5024069;28;20236;-68
2022/12/08 10:04:32;;;;;;;14.77;10.70;;;;;;;9.36;60.02;94768.53;5024170;28;20210;-71
2022/12/08 10:07:22;;;;;;;14.83;11.10;;;;;;;9.38;59.94;94760.50;5024612;28;20236;-70
2022/12/08 10:10:10;;;;;;;17.80;11.80;;;;;;;9.44;60.02;94758.09;5020549;28;20335;-68
2022/12/08 10:12:50;;;;;;;17.70;13.40;;;;;;;9.55;59.62;94743.94;4963568;28;20236;-69
2022/12/08 10:15:15;;;;;;;16.23;13.63;;;;;;;9.68;59.32;94741.72;4946279;28;20265;-70
2022/12/08 10:17:47;;;;;;;18.87;13.53;;;;;;;9.68;59.35;94735.66;4945919;28;20342;-68
2022/12/08 10:20:12;;;;;;;17.00;13.20;;;;;;;9.85;58.58;94726.91;4950377;28;20208;-67
2022/12/08 10:22:38;;;;;;;21.17;13.40;;;;;;;10.00;58.40;94728.97;4949782;28;20206;-69
2022/12/08 10:25:14;;;;;;;20.40;13.90;;;;;;;9.94;58.21;94733.03;4947186;28;20376;-69
2022/12/08 10:27:40;;;;;;;19.80;15.10;;;;;;;10.08;58.08;94739.53;4949647;28;20242;-69
2022/12/08 10:30:17;;;;;;;18.13;13.90;;;;;;;9.88;58.24;94744.97;4942363;28;20224;-68
2022/12/08 10:32:45;;;;;;;21.17;14.97;;;;;;;9.72;58.63;94737.00;4951121;28;20246;-68
2022/12/08 10:35:13;;;;;;;17.97;12.80;;;;;;;9.50;59.22;94728.63;4958548;28;20195;-68
2022/12/08 10:37:39;;;;;;;19.17;14.63;;;;;;;9.41;59.71;94731.31;4958229;28;20215;-68
2022/12/08 10:40:16;;;;;;;19.67;15.50;;;;;;;9.60;59.34;94725.91;4909926;29;20225;-68
2022/12/08 10:42:46;;;;;;;19.20;14.13;;;;;;;9.69;58.98;94732.03;4903649;29;20226;-69
2022/12/08 10:45:32;;;;;;;19.47;15.50;;;;;;;9.72;59.02;94731.75;4919215;29;20512;-68
2022/12/08 10:47:59;;;;;;;29.90;17.67;;;;;;;9.71;59.20;94709.91;4902343;29;20237;-69
2022/12/08 10:50:28;;;;;;;23.00;17.50;;;;;;;9.66;59.44;94709.56;4980713;28;20223;-68
2022/12/08 10:53:09;;;;;;;24.40;18.63;;;;;;;9.73;58.99;94715.03;5003712;28;20218;-68
2022/12/08 10:55:47;;;;;;;24.50;17.70;;;;;;;9.78;59.25;94714.53;5011306;28;20303;-69
2022/12/08 10:58:34;;;;;;;22.70;17.27;;;;;;;9.85;59.03;94705.06;5010817;28;20218;-69
2022/12/08 11:01:13;;;;;;;25.10;18.30;;;;;;;9.87;58.78;94709.19;4999593;28;20310;-68
2022/12/08 11:03:49;;;;;;;25.37;18.10;;;;;;;9.83;58.49;94704.41;4996629;28;20215;-68
2022/12/08 11:06:18;;;;;;;23.90;17.90;;;;;;;9.70;59.40;94692.53;5012119;28;20230;-68
2022/12/08 11:08:49;;;;;;;23.37;16.40;;;;;;;9.69;59.25;94693.47;5002810;28;20234;-68
2022/12/08 11:11:15;;;;;;;21.70;16.30;;;;;;;9.78;59.27;94694.34;5032263;28;20289;-68
2022/12/08 11:13:41;;;;;;;22.53;16.87;;;;;;;10.02;58.59;94704.19;5042055;28;20248;-69
2022/12/08 11:16:07;;;;;;;22.83;16.60;;;;;;;9.94;58.59;94701.50;5038666;28;20232;-68
2022/12/08 11:18:42;;;;;;;19.50;15.27;;;;;;;10.15;57.66;94693.25;5035221;28;20254;-68
2022/12/08 11:21:16;;;;;;;18.97;16.33;;;;;;;10.11;58.26;94682.25;5049073;28;20274;-68
2022/12/08 11:23:46;;;;;;;22.47;15.97;;;;;;;10.16;58.05;94679.97;5040605;28;20221;-69
2022/12/08 11:26:24;;;;;;;25.87;16.17;;;;;;;10.48;57.41;94664.53;5041925;28;20203;-68
2022/12/08 11:28:50;;;;;;;22.93;17.43;;;;;;;10.56;56.95;94657.47;5037241;28;20437;-68
2022/12/08 11:31:38;;;;;;;20.53;16.90;;;;;;;10.92;56.21;94667.72;5038907;28;20221;-68
2022/12/08 11:34:05;;;;;;;23.80;16.67;;;;;;;11.18;55.67;94661.50;5047957;28;20218;-68